Gulf Bridge — A8JM5 — position and weather

sailwx.info

Track history (hours):
 
Tides and Currents Weather Stations Pressure Air Temp Water Temp Dewpoint Dewpoint Depression Visibility Wind Speed Wind Dir Waves Ship Positions

Gulf Bridge

Last reported at 2016-May-30 02:19 UTC. Time now 2016-May-30 02:59 UTC.
Position N 34°39' E 135°24'.

Length 213 m; beam 32.2 m; draft 11.5 m.

Type: Cargo ship. MMSI: 636091115.

Date/timePositionNaut miles runAvg speedWind from/ knotsBaromVisibWave heightAir tempDewpointWater temp
2016-May-30 02:19N 34°39' E 135°24'0 0.0
2016-May-30 01:31N 34°39' E 135°24'0 0.0
2016-May-30 00:31N 34°39' E 135°24'0 0.0
2016-May-29 23:25N 34°39' E 135°24'2 2.0
2016-May-29 22:33N 34°38' E 135°23'6 6.4
2016-May-29 21:33N 34°34' E 135°16'1817.8
2016-May-29 20:33N 34°21' E 135°01'1414.5
2016-May-29 19:34N 34°07' E 134°59'  
2016-May-27 01:33N 22°49' E 120°04'1616.4
2016-May-27 00:33N 22°34' E 120°13'6 5.8
2016-May-26 23:30N 22°34' E 120°19'0 0.0
2016-May-26 22:30N 22°34' E 120°19'0 0.0
2016-May-26 21:30N 22°34' E 120°19'0 0.0
2016-May-26 20:30N 22°34' E 120°19'0 0.0
2016-May-26 18:18N 22°34' E 120°19'0 0.0
2016-May-26 17:30N 22°34' E 120°19'0 0.0
2016-May-26 16:24N 22°34' E 120°19'0 0.0
2016-May-26 15:24N 22°34' E 120°19'0 0.0
2016-May-26 14:30N 22°34' E 120°19'0 0.0
2016-May-26 13:30N 22°34' E 120°19'7 6.9
2016-May-26 12:33N 22°31' E 120°13'1513.4
2016-May-26 11:28N 22°29' E 119°57'1516.6
2016-May-26 10:33N 22°25' E 119°41'1716.8
2016-May-26 09:33N 22°24' E 119°23'28518.5
2016-May-25 18:06N 22°07' E 114°15'15 9.5
2016-May-25 16:33N 22°20' E 114°07'1 0.6
2016-May-25 15:33N 22°20' E 114°07'0 0.0
2016-May-25 14:24N 22°20' E 114°07'0 0.0
2016-May-25 13:33N 22°20' E 114°07'0 0.0
2016-May-25 12:30N 22°20' E 114°07'0 0.0
2016-May-25 11:33N 22°20' E 114°07'0 0.0
2016-May-25 10:27N 22°20' E 114°07'0 0.0
2016-May-25 09:33N 22°20' E 114°07'0 0.0
2016-May-25 07:24N 22°20' E 114°07'0 0.0
2016-May-25 05:27N 22°20' E 114°07'0 0.0
2016-May-25 03:27N 22°20' E 114°07'0 0.5
2016-May-25 02:33N 22°20' E 114°07'7 7.2
2016-May-25 01:33N 22°13' E 114°10'9 6.9
2016-May-25 00:17N 22°08' E 114°17'6 7.9
2016-May-24 23:33N 22°06' E 114°23'1111.0
2016-May-24 22:32N 21°55' E 114°21'  
Track history (hours):
 
Tides and Currents Weather Stations Pressure Air Temp Water Temp Dewpoint Dewpoint Depression Visibility Wind Speed Wind Dir Waves Ship Positions

Gulf Bridge

Last reported at 2016-May-30 02:19 UTC. Time now 2016-May-30 02:59 UTC.
Position N 34°39' E 135°24'.

Length 213 m; beam 32.2 m; draft 11.5 m.

Type: Cargo ship. MMSI: 636091115.

Date/timePositionNaut miles runAvg speedWind from/ knotsBaromVisibWave heightAir tempDewpointWater temp
2016-May-30 02:19N 34°39' E 135°24'0 0.0
2016-May-30 01:31N 34°39' E 135°24'0 0.0
2016-May-30 00:31N 34°39' E 135°24'0 0.0
2016-May-29 23:25N 34°39' E 135°24'2 2.0
2016-May-29 22:33N 34°38' E 135°23'6 6.4
2016-May-29 21:33N 34°34' E 135°16'1817.8
2016-May-29 20:33N 34°21' E 135°01'1414.5
2016-May-29 19:34N 34°07' E 134°59'  
2016-May-27 01:33N 22°49' E 120°04'1616.4
2016-May-27 00:33N 22°34' E 120°13'6 5.8
2016-May-26 23:30N 22°34' E 120°19'0 0.0
2016-May-26 22:30N 22°34' E 120°19'0 0.0
2016-May-26 21:30N 22°34' E 120°19'0 0.0
2016-May-26 20:30N 22°34' E 120°19'0 0.0
2016-May-26 18:18N 22°34' E 120°19'0 0.0
2016-May-26 17:30N 22°34' E 120°19'0 0.0
2016-May-26 16:24N 22°34' E 120°19'0 0.0
2016-May-26 15:24N 22°34' E 120°19'0 0.0
2016-May-26 14:30N 22°34' E 120°19'0 0.0
2016-May-26 13:30N 22°34' E 120°19'7 6.9
2016-May-26 12:33N 22°31' E 120°13'1513.4
2016-May-26 11:28N 22°29' E 119°57'1516.6
2016-May-26 10:33N 22°25' E 119°41'1716.8
2016-May-26 09:33N 22°24' E 119°23'28518.5
2016-May-25 18:06N 22°07' E 114°15'15 9.5
2016-May-25 16:33N 22°20' E 114°07'1 0.6
2016-May-25 15:33N 22°20' E 114°07'0 0.0
2016-May-25 14:24N 22°20' E 114°07'0 0.0
2016-May-25 13:33N 22°20' E 114°07'0 0.0
2016-May-25 12:30N 22°20' E 114°07'0 0.0
2016-May-25 11:33N 22°20' E 114°07'0 0.0
2016-May-25 10:27N 22°20' E 114°07'0 0.0
2016-May-25 09:33N 22°20' E 114°07'0 0.0
2016-May-25 07:24N 22°20' E 114°07'0 0.0
2016-May-25 05:27N 22°20' E 114°07'0 0.0
2016-May-25 03:27N 22°20' E 114°07'0 0.5
2016-May-25 02:33N 22°20' E 114°07'7 7.2
2016-May-25 01:33N 22°13' E 114°10'9 6.9
2016-May-25 00:17N 22°08' E 114°17'6 7.9
2016-May-24 23:33N 22°06' E 114°23'1111.0
2016-May-24 22:32N 21°55' E 114°21'  

Dump ship's entire track history